METAR Data
IDs: Format: Raw Decoded Include TAF

Data at: 2123 UTC 06 Dec 2019

KACK 062053Z 22014KT 10SM OVC090 07/03 A2999 RMK AO2 SLP154 T00720028 58021
KACK 061953Z 23014KT 10SM OVC080 07/01 A3001 RMK AO2 SLP163 T00670011
KACK 061853Z 24016KT 10SM OVC070 06/00 A3003 RMK AO2 SLP168 T00610000
KACK 061753Z 23013KT 10SM FEW028 06/M01 A3005 RMK AO2 SLP175 T00561011 10072 20006 56029
KACK 061653Z 24012KT 10SM FEW050 SCT090 BKN100 06/M02 A3007 RMK AO2 SLP183 T00561017
KACK 061553Z 27009KT 10SM CLR 05/M03 A3010 RMK AO2 SLP194 T00501028
KACK 061453Z 29008KT 10SM CLR 03/M04 A3013 RMK AO2 SLP204 T00331044 51012
KACK 061353Z 28012KT 10SM CLR 02/M05 A3013 RMK AO2 SLP202 T00221050
KACK 061253Z 29014G20KT 10SM CLR 02/M06 A3012 RMK AO2 SLP199 T00171056
KACK 061153Z 29014KT 10SM CLR 01/M06 A3010 RMK AO2 SLP192 T00061061 10011 20000 51014
KACK 061053Z 29012G20KT 10SM CLR 00/M07 A3009 RMK AO2 SLP189 T00001067
KACK 061046Z 29014G20KT 10SM CLR 00/M07 A3009 RMK AO2 T00001067
KACK 060953Z AUTO 29012KT CLR 00/M07 A3007 RMK AO2 SLP183 T00001067
KACK 060853Z AUTO 29012KT CLR 00/M07 A3006 RMK AO2 SLP178 T00001067 51025
KACK 060753Z AUTO 29015G21KT CLR 01/M07 A3004 RMK AO2 SLP171 T00061072
KACK 060653Z AUTO 30011G21KT SCT041 01/M07 A3002 RMK AO2 SLP164 T00061072
KACK 060553Z AUTO 29016G21KT OVC042 01/M07 A2998 RMK AO2 SLP153 T00111072 10050 20011 53030
KACK 060453Z AUTO 29019G26KT BKN047 02/M08 A2995 RMK AO2 PK WND 30026/0433 SLP143 T00171078 400780000
KACK 060353Z AUTO 29018G27KT BKN048 02/M07 A2993 RMK AO2 PK WND 28029/0314 SLP134 T00171072
KACK 060253Z AUTO 29018G27KT BKN050 02/M08 A2990 RMK AO2 PK WND 29027/0154 SLP124 T00221078 53027
KACK 060153Z 29019G28KT 10SM BKN075 03/M08 A2987 RMK AO2 PK WND 29029/0111 SLP113 T00281083
KACK 060053Z 30017G33KT 10SM OVC070 04/M08 A2984 RMK AO2 PK WND 30033/0051 SLP104 T00391078
KACK 052353Z 29015G24KT 10SM OVC060 05/M05 A2981 RMK AO2 SLP096 T00501050 10072 20044 51039
KACK 052253Z 29014KT 10SM OVC060 05/M04 A2978 RMK AO2 SLP084 T00501044
KACK 052153Z 29011KT 10SM CLR 04/M04 A2974 RMK AO2 SLP070 T00441039
KACK 052053Z 29014G19KT 10SM SCT047 06/M03 A2970 RMK AO2 SLP057 T00561033 53027
KACK 052007Z 28015G24KT 10SM CLR 07/M03 A2967 RMK AO2 T00671033
KACK 051953Z COR 28016G21KT 10SM CLR 07/M03 A2967 RMK AO2 SLP045 T00671028
KACK 051853Z 29014G23KT 10SM CLR 07/M02 A2963 RMK AO2 SLP034 T00721017
KACK 051753Z 29014KT 10SM FEW034 07/M01 A2962 RMK AO2 SLP029 T00721011 10078 20017 53001
KACK 051653Z 30013G19KT 10SM CLR 07/M01 A2961 RMK AO2 SLP028 T00721006
KACK 051553Z 30013KT 10SM CLR 07/00 A2962 RMK AO2 SLP028 T00670000
KACK 051453Z 30011KT 10SM CLR 06/01 A2961 RMK AO2 SLP028 T00610006 53018
KACK 051353Z 30008KT 10SM CLR 05/01 A2960 RMK AO2 SLP022 T00500006
KACK 051253Z 29007KT 10SM CLR 03/01 A2958 RMK AO2 SLP016 T00330006
KACK 051153Z 29006KT 10SM FEW110 02/M01 A2956 RMK AO2 SLP010 T00171006 10039 20000 53021
KACK 051053Z 28005KT 10SM CLR 01/M01 A2953 RMK AO2 SLP000 T00111011
KACK 050953Z AUTO 30006KT CLR 01/M01 A2951 RMK AO2 SLP991 T00111011